Terminal Aerodrome Forecast
Issued by NWS Albany, NY

Home | Current Version | Previous Version | Text Only | Print | Product List | Glossary On
Versions: 1 2 3 4 5 6 7 8 9 10 11 12
000
FTUS41 KALY 230500
TAFGFL
TAF
KGFL 230520Z 2306/2406 22008KT P6SM VCSH SCT020 OVC040
      TEMPO 2308/2312 BKN020
     FM231200 34010G22KT 6SM -SHRA BKN020 OVC040
     FM231500 34012G25KT P6SM -SHRA BKN030 OVC040
     FM240000 32011KT P6SM SCT030 BKN070=

USA.gov is the U.S. government's official web portal to all federal, state and local government web resources and services.